Richland Springs, Texas
Current Conditions -  °F | °C
As of 6:15 PM on Friday 19 Dec 2014 (Local Time) from KBBD Reporting Station
Overcast Overcast  
Wind Chill: 50°   Ceiling: 2500
Heat Index: 50°   Visibility: 10mi
Dew Point: 45°   Wind: 9mph
Humidity: 82%   Direction: 10°N
Pressure: 30.13"   Gusts: NA
Location:  31.27°N, 98.95°W
Report Text: KBBD 200015Z AUTO 01008KT 10SM OVC025 10/07 A3013 RMK
Loading
Personal Weather Stations






























Interactive Weather Map New forecast layout! Learn more

10-Day Weather Forecast

Advertisements
Track Severe Weather on mobile